Terminal Aerodrome Forecast
Issued by NWS

Home | Current Version | Previous Version | Text Only | Print | Product List | Glossary On
Versions: 1 2 3 4 5 6 7 8 9 10 11 12 13 14 15 16 17 18 19 20 21 22 23 24 25
224
FTUS43 KDLH 080248 AAA
TAFHIB
TAF AMD
KHIB 080248Z 0803/0824 30016G21KT 6SM -SN BR BKN015 OVC022
      TEMPO 0803/0807 2SM -SN BR
     FM080900 34016G26KT 5SM -SN BLSN OVC020
     FM081600 34015G25KT P6SM -SN SCT025 OVC035=

USA.gov is the U.S. government's official web portal to all federal, state and local government web resources and services.